CheckWX is a tool to help pilots better visualize weather data.  It is not intended as a substitute for an official pre-flight weather briefing.

17:30:53 UTC

KMVL METAR
Morrisville-Stowe State Airport
Morrisville, Vermont, USA
Current

37 mins ago

KMVL 211654Z AUTO 34008KT 10SM FEW026 SCT034 BKN060 26/22 A2974 RMK AO2 RAB12E53 SLP068 P0000 T02560217
Observed
Jul-21 @ 16:54 UTC
Wind
  • 340° at 8 KTS
Visibility
10 SM
Flight Rules
VFR
Cloud Levels
  • Few at 2,600' AGL
  • Scattered at 3,400' AGL
  • Broken at 6,000' AGL
Temperature
26°C / 79°F
Dewpoint
22°C / 72°F
Humidity
79%
Altimeter
29.74" Hg
Pressure
1007.12 hPa
Current Rain
0.01"
Previous

2 hours ago

KMVL 211554Z AUTO 32008KT 280V340 10SM FEW043 BKN060 BKN080 28/19 A2972 RMK AO2 SLP061 T02830189
Observed
Jul-21 @ 15:54 UTC
Wind
  • 320° at 8 KTS
Visibility
10 SM
Flight Rules
VFR
Cloud Levels
  • Few at 4,300' AGL
  • Broken at 6,000' AGL
  • Broken at 8,000' AGL
Temperature
28°C / 82°F
Dewpoint
19°C / 66°F
Heat Index
29°C / 84°F
Humidity
58%
Altimeter
29.72" Hg
Pressure
1006.42 hPa
Previous

3 hours ago

KMVL 211454Z AUTO 25004KT 10SM FEW035 SCT043 OVC060 27/20 A2972 RMK AO2 SLP058 T02720200 53002
Observed
Jul-21 @ 14:54 UTC
Wind
  • 250° at 4 KTS
Visibility
10 SM
Flight Rules
VFR
Cloud Levels
  • Few at 3,500' AGL
  • Scattered at 4,300' AGL
  • Overcast at 6,000' AGL
Temperature
27°C / 81°F
Dewpoint
20°C / 68°F
Heat Index
29°C / 84°F
Humidity
66%
Altimeter
29.72" Hg
Pressure
1006.42 hPa